sensor_id;sensor_type;location;lat;lon;timestamp;temperature;humidity
24800;DHT22;12897;50.812;4.430;2023-05-20T00:00:55;13.90;99.90
24800;DHT22;12897;50.812;4.430;2023-05-20T00:03:22;13.90;99.90
24800;DHT22;12897;50.812;4.430;2023-05-20T00:05:50;13.80;99.90
24800;DHT22;12897;50.812;4.430;2023-05-20T00:08:18;13.80;99.90
24800;DHT22;12897;50.812;4.430;2023-05-20T00:10:46;13.80;99.90
24800;DHT22;12897;50.812;4.430;2023-05-20T00:13:13;13.80;99.90
24800;DHT22;12897;50.812;4.430;2023-05-20T00:15:41;13.80;99.90
24800;DHT22;12897;50.812;4.430;2023-05-20T00:18:09;13.80;99.90
24800;DHT22;12897;50.812;4.430;2023-05-20T00:20:36;13.60;99.90
24800;DHT22;12897;50.812;4.430;2023-05-20T00:23:05;13.50;99.90
24800;DHT22;12897;50.812;4.430;2023-05-20T00:25:33;13.50;99.90
24800;DHT22;12897;50.812;4.430;2023-05-20T00:28:00;13.40;99.90
24800;DHT22;12897;50.812;4.430;2023-05-20T00:30:28;13.50;99.90
24800;DHT22;12897;50.812;4.430;2023-05-20T00:32:55;13.30;99.90
24800;DHT22;12897;50.812;4.430;2023-05-20T00:35:23;13.20;99.90
24800;DHT22;12897;50.812;4.430;2023-05-20T00:37:52;13.20;99.90
24800;DHT22;12897;50.812;4.430;2023-05-20T00:40:19;13.20;99.90
24800;DHT22;12897;50.812;4.430;2023-05-20T00:42:48;13.30;99.90
24800;DHT22;12897;50.812;4.430;2023-05-20T00:45:16;13.30;99.90
24800;DHT22;12897;50.812;4.430;2023-05-20T00:47:44;13.30;99.90
24800;DHT22;12897;50.812;4.430;2023-05-20T00:50:12;13.40;99.90
24800;DHT22;12897;50.812;4.430;2023-05-20T00:52:40;13.40;99.90
24800;DHT22;12897;50.812;4.430;2023-05-20T00:55:11;13.30;99.90
24800;DHT22;12897;50.812;4.430;2023-05-20T00:57:38;13.10;99.90
24800;DHT22;12897;50.812;4.430;2023-05-20T01:00:07;13.10;99.90
24800;DHT22;12897;50.812;4.430;2023-05-20T01:02:36;13.00;99.90
24800;DHT22;12897;50.812;4.430;2023-05-20T01:05:04;13.10;99.90
24800;DHT22;12897;50.812;4.430;2023-05-20T01:07:32;13.10;99.90
24800;DHT22;12897;50.812;4.430;2023-05-20T01:10:00;13.00;99.90
24800;DHT22;12897;50.812;4.430;2023-05-20T01:12:44;13.00;99.90
24800;DHT22;12897;50.812;4.430;2023-05-20T01:15:18;13.00;99.90
24800;DHT22;12897;50.812;4.430;2023-05-20T01:17:50;13.00;99.90
24800;DHT22;12897;50.812;4.430;2023-05-20T01:20:19;13.00;99.90
24800;DHT22;12897;50.812;4.430;2023-05-20T01:22:48;12.90;99.90
24800;DHT22;12897;50.812;4.430;2023-05-20T01:25:17;13.00;99.90
24800;DHT22;12897;50.812;4.430;2023-05-20T01:27:44;13.00;99.90
24800;DHT22;12897;50.812;4.430;2023-05-20T01:30:12;12.90;99.90
24800;DHT22;12897;50.812;4.430;2023-05-20T01:33:01;12.90;99.90
24800;DHT22;12897;50.812;4.430;2023-05-20T01:35:29;12.90;99.90
24800;DHT22;12897;50.812;4.430;2023-05-20T01:37:57;13.00;99.90
24800;DHT22;12897;50.812;4.430;2023-05-20T01:40:27;12.90;99.90
24800;DHT22;12897;50.812;4.430;2023-05-20T01:42:55;13.00;99.90
24800;DHT22;12897;50.812;4.430;2023-05-20T01:45:25;12.90;99.90
24800;DHT22;12897;50.812;4.430;2023-05-20T01:47:53;12.90;99.90
24800;DHT22;12897;50.812;4.430;2023-05-20T01:50:40;12.80;99.90
24800;DHT22;12897;50.812;4.430;2023-05-20T01:53:08;12.80;99.90
24800;DHT22;12897;50.812;4.430;2023-05-20T01:55:35;12.70;99.90
24800;DHT22;12897;50.812;4.430;2023-05-20T01:58:03;12.70;99.90
24800;DHT22;12897;50.812;4.430;2023-05-20T02:00:32;12.60;99.90
24800;DHT22;12897;50.812;4.430;2023-05-20T02:03:00;12.70;99.90
24800;DHT22;12897;50.812;4.430;2023-05-20T02:05:29;12.60;99.90
24800;DHT22;12897;50.812;4.430;2023-05-20T02:07:56;12.80;99.90
24800;DHT22;12897;50.812;4.430;2023-05-20T02:10:24;12.70;99.90
24800;DHT22;12897;50.812;4.430;2023-05-20T02:12:52;12.70;99.90
24800;DHT22;12897;50.812;4.430;2023-05-20T02:15:19;12.60;99.90
24800;DHT22;12897;50.812;4.430;2023-05-20T02:18:06;12.60;99.90
24800;DHT22;12897;50.812;4.430;2023-05-20T02:20:37;12.60;99.90
24800;DHT22;12897;50.812;4.430;2023-05-20T02:23:11;12.60;99.90
24800;DHT22;12897;50.812;4.430;2023-05-20T02:25:40;12.50;99.90
24800;DHT22;12897;50.812;4.430;2023-05-20T02:28:07;12.60;99.90
24800;DHT22;12897;50.812;4.430;2023-05-20T02:30:37;12.50;99.90
24800;DHT22;12897;50.812;4.430;2023-05-20T02:33:05;12.60;99.90
24800;DHT22;12897;50.812;4.430;2023-05-20T02:35:33;12.60;99.90
24800;DHT22;12897;50.812;4.430;2023-05-20T02:38:01;12.50;99.90
24800;DHT22;12897;50.812;4.430;2023-05-20T02:40:28;12.50;99.90
24800;DHT22;12897;50.812;4.430;2023-05-20T02:42:56;12.50;99.90
24800;DHT22;12897;50.812;4.430;2023-05-20T02:45:25;12.40;99.90
24800;DHT22;12897;50.812;4.430;2023-05-20T02:47:52;12.40;99.90
24800;DHT22;12897;50.812;4.430;2023-05-20T02:50:20;12.30;99.90
24800;DHT22;12897;50.812;4.430;2023-05-20T02:52:47;12.40;99.90
24800;DHT22;12897;50.812;4.430;2023-05-20T02:55:15;12.30;99.90
24800;DHT22;12897;50.812;4.430;2023-05-20T02:57:42;12.30;99.90
24800;DHT22;12897;50.812;4.430;2023-05-20T03:00:10;12.40;99.90
24800;DHT22;12897;50.812;4.430;2023-05-20T03:02:40;12.30;99.90
24800;DHT22;12897;50.812;4.430;2023-05-20T03:05:08;12.30;99.90
24800;DHT22;12897;50.812;4.430;2023-05-20T03:07:36;12.30;99.90
24800;DHT22;12897;50.812;4.430;2023-05-20T03:10:04;12.30;99.90
24800;DHT22;12897;50.812;4.430;2023-05-20T03:12:32;12.20;99.90
24800;DHT22;12897;50.812;4.430;2023-05-20T03:14:59;12.10;99.90
24800;DHT22;12897;50.812;4.430;2023-05-20T03:17:27;12.00;99.90
24800;DHT22;12897;50.812;4.430;2023-05-20T03:19:54;12.10;99.90
24800;DHT22;12897;50.812;4.430;2023-05-20T03:22:22;11.90;99.90
24800;DHT22;12897;50.812;4.430;2023-05-20T03:24:49;12.10;99.90
24800;DHT22;12897;50.812;4.430;2023-05-20T03:27:18;12.10;99.90
24800;DHT22;12897;50.812;4.430;2023-05-20T03:29:46;12.00;99.90
24800;DHT22;12897;50.812;4.430;2023-05-20T03:32:20;12.20;99.90
24800;DHT22;12897;50.812;4.430;2023-05-20T03:34:55;12.10;99.90
24800;DHT22;12897;50.812;4.430;2023-05-20T03:37:27;12.10;99.90
24800;DHT22;12897;50.812;4.430;2023-05-20T03:39:55;12.10;99.90
24800;DHT22;12897;50.812;4.430;2023-05-20T03:42:22;12.00;99.90
24800;DHT22;12897;50.812;4.430;2023-05-20T03:44:50;12.00;99.90
24800;DHT22;12897;50.812;4.430;2023-05-20T03:47:17;11.90;99.90
24800;DHT22;12897;50.812;4.430;2023-05-20T03:49:45;11.90;99.90
24800;DHT22;12897;50.812;4.430;2023-05-20T03:52:12;11.90;99.90
24800;DHT22;12897;50.812;4.430;2023-05-20T03:54:40;11.90;99.90
24800;DHT22;12897;50.812;4.430;2023-05-20T03:57:27;12.00;99.90
24800;DHT22;12897;50.812;4.430;2023-05-20T03:59:55;12.10;99.90
24800;DHT22;12897;50.812;4.430;2023-05-20T04:02:23;12.10;99.90
24800;DHT22;12897;50.812;4.430;2023-05-20T04:04:51;12.10;99.90
24800;DHT22;12897;50.812;4.430;2023-05-20T04:07:18;12.10;99.90
24800;DHT22;12897;50.812;4.430;2023-05-20T04:09:46;12.10;99.90
24800;DHT22;12897;50.812;4.430;2023-05-20T04:12:13;12.10;99.90
24800;DHT22;12897;50.812;4.430;2023-05-20T04:14:41;12.10;99.90
24800;DHT22;12897;50.812;4.430;2023-05-20T04:17:08;12.10;99.90
24800;DHT22;12897;50.812;4.430;2023-05-20T04:19:36;12.10;99.90
24800;DHT22;12897;50.812;4.430;2023-05-20T04:22:04;12.20;99.90
24800;DHT22;12897;50.812;4.430;2023-05-20T04:24:31;12.20;99.90
24800;DHT22;12897;50.812;4.430;2023-05-20T04:27:00;12.20;99.90
24800;DHT22;12897;50.812;4.430;2023-05-20T04:29:27;12.20;99.90
24800;DHT22;12897;50.812;4.430;2023-05-20T04:31:55;12.10;99.90
24800;DHT22;12897;50.812;4.430;2023-05-20T04:34:24;12.10;99.90
24800;DHT22;12897;50.812;4.430;2023-05-20T04:36:53;12.10;99.90
24800;DHT22;12897;50.812;4.430;2023-05-20T04:39:23;12.10;99.90
24800;DHT22;12897;50.812;4.430;2023-05-20T04:41:52;12.20;99.90
24800;DHT22;12897;50.812;4.430;2023-05-20T04:44:20;12.20;99.90
24800;DHT22;12897;50.812;4.430;2023-05-20T04:46:49;12.30;99.90
24800;DHT22;12897;50.812;4.430;2023-05-20T04:49:17;12.30;99.90
24800;DHT22;12897;50.812;4.430;2023-05-20T04:51:44;12.30;99.90
24800;DHT22;12897;50.812;4.430;2023-05-20T04:54:13;12.40;99.90
24800;DHT22;12897;50.812;4.430;2023-05-20T04:56:43;12.50;99.90
24800;DHT22;12897;50.812;4.430;2023-05-20T04:59:11;12.40;99.90
24800;DHT22;12897;50.812;4.430;2023-05-20T05:01:39;12.40;99.90
24800;DHT22;12897;50.812;4.430;2023-05-20T05:04:07;12.30;99.90
24800;DHT22;12897;50.812;4.430;2023-05-20T05:06:34;12.40;99.90
24800;DHT22;12897;50.812;4.430;2023-05-20T05:09:09;12.40;99.90
24800;DHT22;12897;50.812;4.430;2023-05-20T05:11:37;12.50;99.90
24800;DHT22;12897;50.812;4.430;2023-05-20T05:14:05;12.50;99.90
24800;DHT22;12897;50.812;4.430;2023-05-20T05:16:32;12.60;99.90
24800;DHT22;12897;50.812;4.430;2023-05-20T05:19:00;12.60;99.90
24800;DHT22;12897;50.812;4.430;2023-05-20T05:21:28;12.60;99.90
24800;DHT22;12897;50.812;4.430;2023-05-20T05:23:57;12.60;99.90
24800;DHT22;12897;50.812;4.430;2023-05-20T05:26:24;13.00;99.90
24800;DHT22;12897;50.812;4.430;2023-05-20T05:28:55;13.60;99.90
24800;DHT22;12897;50.812;4.430;2023-05-20T05:31:22;14.20;99.90
24800;DHT22;12897;50.812;4.430;2023-05-20T05:33:50;14.80;99.90
24800;DHT22;12897;50.812;4.430;2023-05-20T05:36:18;15.20;99.90
24800;DHT22;12897;50.812;4.430;2023-05-20T05:38:45;15.40;99.90
24800;DHT22;12897;50.812;4.430;2023-05-20T05:41:13;15.70;99.90
24800;DHT22;12897;50.812;4.430;2023-05-20T05:43:40;15.80;99.90
24800;DHT22;12897;50.812;4.430;2023-05-20T05:46:08;15.80;99.90
24800;DHT22;12897;50.812;4.430;2023-05-20T05:48:36;16.00;99.90
24800;DHT22;12897;50.812;4.430;2023-05-20T05:51:04;16.10;99.90
24800;DHT22;12897;50.812;4.430;2023-05-20T05:53:31;16.40;99.90
24800;DHT22;12897;50.812;4.430;2023-05-20T05:55:59;16.40;99.90
24800;DHT22;12897;50.812;4.430;2023-05-20T05:58:27;16.70;99.90
24800;DHT22;12897;50.812;4.430;2023-05-20T06:00:55;16.40;99.90
24800;DHT22;12897;50.812;4.430;2023-05-20T06:03:23;16.50;99.90
24800;DHT22;12897;50.812;4.430;2023-05-20T06:05:51;16.40;99.90
24800;DHT22;12897;50.812;4.430;2023-05-20T06:08:19;16.30;99.90
24800;DHT22;12897;50.812;4.430;2023-05-20T06:10:48;16.40;99.90
24800;DHT22;12897;50.812;4.430;2023-05-20T06:13:16;16.20;99.90
24800;DHT22;12897;50.812;4.430;2023-05-20T06:15:44;16.00;99.90
24800;DHT22;12897;50.812;4.430;2023-05-20T06:18:12;16.30;99.90
24800;DHT22;12897;50.812;4.430;2023-05-20T06:20:39;16.30;99.90
24800;DHT22;12897;50.812;4.430;2023-05-20T06:23:07;15.90;99.90
24800;DHT22;12897;50.812;4.430;2023-05-20T06:25:34;16.00;99.90
24800;DHT22;12897;50.812;4.430;2023-05-20T06:28:02;16.10;99.90
24800;DHT22;12897;50.812;4.430;2023-05-20T06:30:29;16.10;99.90
24800;DHT22;12897;50.812;4.430;2023-05-20T06:32:57;16.10;99.90
24800;DHT22;12897;50.812;4.430;2023-05-20T06:35:24;16.10;99.90
24800;DHT22;12897;50.812;4.430;2023-05-20T06:37:54;16.00;99.90
24800;DHT22;12897;50.812;4.430;2023-05-20T06:40:23;16.10;99.90
24800;DHT22;12897;50.812;4.430;2023-05-20T06:42:55;16.00;99.90
24800;DHT22;12897;50.812;4.430;2023-05-20T06:45:23;16.10;99.90
24800;DHT22;12897;50.812;4.430;2023-05-20T06:47:52;16.30;99.90
24800;DHT22;12897;50.812;4.430;2023-05-20T06:50:20;16.70;99.90
24800;DHT22;12897;50.812;4.430;2023-05-20T06:52:47;16.80;99.90
24800;DHT22;12897;50.812;4.430;2023-05-20T06:55:15;16.90;99.90
24800;DHT22;12897;50.812;4.430;2023-05-20T06:57:43;16.80;99.90
24800;DHT22;12897;50.812;4.430;2023-05-20T07:00:11;16.80;99.90
24800;DHT22;12897;50.812;4.430;2023-05-20T07:02:39;16.90;99.90
24800;DHT22;12897;50.812;4.430;2023-05-20T07:05:07;17.00;99.90
24800;DHT22;12897;50.812;4.430;2023-05-20T07:07:35;17.30;99.90
24800;DHT22;12897;50.812;4.430;2023-05-20T07:10:04;17.30;99.90
24800;DHT22;12897;50.812;4.430;2023-05-20T07:12:32;17.20;99.90
24800;DHT22;12897;50.812;4.430;2023-05-20T07:15:00;16.80;99.90
24800;DHT22;12897;50.812;4.430;2023-05-20T07:17:28;16.50;99.90
24800;DHT22;12897;50.812;4.430;2023-05-20T07:19:55;16.50;99.90
24800;DHT22;12897;50.812;4.430;2023-05-20T07:22:23;16.30;99.90
24800;DHT22;12897;50.812;4.430;2023-05-20T07:24:50;16.00;99.90
24800;DHT22;12897;50.812;4.430;2023-05-20T07:27:18;16.10;99.90
24800;DHT22;12897;50.812;4.430;2023-05-20T07:29:46;16.20;99.90
24800;DHT22;12897;50.812;4.430;2023-05-20T07:32:13;16.30;99.90
24800;DHT22;12897;50.812;4.430;2023-05-20T07:34:43;16.40;99.90
24800;DHT22;12897;50.812;4.430;2023-05-20T07:37:11;16.40;99.90
24800;DHT22;12897;50.812;4.430;2023-05-20T07:39:39;16.30;99.90
24800;DHT22;12897;50.812;4.430;2023-05-20T07:42:06;16.40;99.90
24800;DHT22;12897;50.812;4.430;2023-05-20T07:44:34;16.20;99.90
24800;DHT22;12897;50.812;4.430;2023-05-20T07:47:02;16.10;99.90
24800;DHT22;12897;50.812;4.430;2023-05-20T07:49:29;16.30;99.90
24800;DHT22;12897;50.812;4.430;2023-05-20T07:51:57;16.40;99.90
24800;DHT22;12897;50.812;4.430;2023-05-20T07:54:26;16.40;99.90
24800;DHT22;12897;50.812;4.430;2023-05-20T07:56:54;16.30;99.90
24800;DHT22;12897;50.812;4.430;2023-05-20T07:59:21;16.50;99.90
24800;DHT22;12897;50.812;4.430;2023-05-20T08:01:49;16.70;99.90
24800;DHT22;12897;50.812;4.430;2023-05-20T08:04:18;16.60;99.90
24800;DHT22;12897;50.812;4.430;2023-05-20T08:06:45;16.80;99.90
24800;DHT22;12897;50.812;4.430;2023-05-20T08:09:13;16.80;99.90
24800;DHT22;12897;50.812;4.430;2023-05-20T08:11:40;17.00;99.90
24800;DHT22;12897;50.812;4.430;2023-05-20T08:14:08;17.10;99.90
24800;DHT22;12897;50.812;4.430;2023-05-20T08:16:35;17.00;99.90
24800;DHT22;12897;50.812;4.430;2023-05-20T08:19:04;17.10;99.90
24800;DHT22;12897;50.812;4.430;2023-05-20T08:21:32;17.00;99.90
24800;DHT22;12897;50.812;4.430;2023-05-20T08:24:00;17.00;99.90
24800;DHT22;12897;50.812;4.430;2023-05-20T08:26:28;17.10;99.90
24800;DHT22;12897;50.812;4.430;2023-05-20T08:28:57;17.10;99.90
24800;DHT22;12897;50.812;4.430;2023-05-20T08:31:25;17.20;99.90
24800;DHT22;12897;50.812;4.430;2023-05-20T08:33:53;17.40;99.90
24800;DHT22;12897;50.812;4.430;2023-05-20T08:36:20;17.30;99.90
24800;DHT22;12897;50.812;4.430;2023-05-20T08:38:49;17.20;99.90
24800;DHT22;12897;50.812;4.430;2023-05-20T08:41:16;17.20;99.90
24800;DHT22;12897;50.812;4.430;2023-05-20T08:43:44;17.30;99.90
24800;DHT22;12897;50.812;4.430;2023-05-20T08:46:12;17.40;99.90
24800;DHT22;12897;50.812;4.430;2023-05-20T08:48:40;17.30;99.90
24800;DHT22;12897;50.812;4.430;2023-05-20T08:51:09;17.30;99.90
24800;DHT22;12897;50.812;4.430;2023-05-20T08:53:36;17.50;99.90
24800;DHT22;12897;50.812;4.430;2023-05-20T08:56:04;17.60;99.90
24800;DHT22;12897;50.812;4.430;2023-05-20T08:58:33;17.70;99.90
24800;DHT22;12897;50.812;4.430;2023-05-20T09:01:01;17.80;99.90
24800;DHT22;12897;50.812;4.430;2023-05-20T09:03:28;18.00;99.90
24800;DHT22;12897;50.812;4.430;2023-05-20T09:06:05;18.00;99.90
24800;DHT22;12897;50.812;4.430;2023-05-20T09:08:33;18.10;99.90
24800;DHT22;12897;50.812;4.430;2023-05-20T09:11:01;18.10;99.90
24800;DHT22;12897;50.812;4.430;2023-05-20T09:13:32;18.10;99.90
24800;DHT22;12897;50.812;4.430;2023-05-20T09:16:00;18.20;99.90
24800;DHT22;12897;50.812;4.430;2023-05-20T09:18:29;17.90;99.90
24800;DHT22;12897;50.812;4.430;2023-05-20T09:20:57;17.90;99.90
24800;DHT22;12897;50.812;4.430;2023-05-20T09:23:24;17.90;99.90
24800;DHT22;12897;50.812;4.430;2023-05-20T09:25:53;17.90;99.90
24800;DHT22;12897;50.812;4.430;2023-05-20T09:28:22;18.00;99.90
24800;DHT22;12897;50.812;4.430;2023-05-20T09:30:49;18.10;99.90
24800;DHT22;12897;50.812;4.430;2023-05-20T09:33:17;18.10;99.90
24800;DHT22;12897;50.812;4.430;2023-05-20T09:35:45;18.00;99.90
24800;DHT22;12897;50.812;4.430;2023-05-20T09:38:13;18.00;99.90
24800;DHT22;12897;50.812;4.430;2023-05-20T09:40:43;17.90;99.90
24800;DHT22;12897;50.812;4.430;2023-05-20T09:43:12;18.00;99.90
24800;DHT22;12897;50.812;4.430;2023-05-20T09:45:41;18.10;99.90
24800;DHT22;12897;50.812;4.430;2023-05-20T09:48:09;18.20;99.90
24800;DHT22;12897;50.812;4.430;2023-05-20T09:50:38;18.10;99.90
24800;DHT22;12897;50.812;4.430;2023-05-20T09:53:07;18.20;99.90
24800;DHT22;12897;50.812;4.430;2023-05-20T09:55:35;18.30;99.90
24800;DHT22;12897;50.812;4.430;2023-05-20T09:58:03;18.20;99.90
24800;DHT22;12897;50.812;4.430;2023-05-20T10:00:31;18.20;99.90
24800;DHT22;12897;50.812;4.430;2023-05-20T10:03:00;18.20;99.90
24800;DHT22;12897;50.812;4.430;2023-05-20T10:05:36;18.40;99.90
24800;DHT22;12897;50.812;4.430;2023-05-20T10:16:45;18.80;99.90
24800;DHT22;12897;50.812;4.430;2023-05-20T10:19:31;18.60;99.90
24800;DHT22;12897;50.812;4.430;2023-05-20T10:22:09;18.70;99.90
24800;DHT22;12897;50.812;4.430;2023-05-20T10:24:36;18.70;99.90
24800;DHT22;12897;50.812;4.430;2023-05-20T10:27:13;18.80;99.90
24800;DHT22;12897;50.812;4.430;2023-05-20T10:29:51;18.90;99.90
24800;DHT22;12897;50.812;4.430;2023-05-20T10:32:29;19.00;99.90
24800;DHT22;12897;50.812;4.430;2023-05-20T10:35:03;18.90;99.90
24800;DHT22;12897;50.812;4.430;2023-05-20T10:37:39;18.90;99.90
24800;DHT22;12897;50.812;4.430;2023-05-20T10:40:11;18.90;99.90
24800;DHT22;12897;50.812;4.430;2023-05-20T10:42:39;19.10;99.90
24800;DHT22;12897;50.812;4.430;2023-05-20T10:45:08;19.20;99.90
24800;DHT22;12897;50.812;4.430;2023-05-20T10:47:40;19.10;99.90
24800;DHT22;12897;50.812;4.430;2023-05-20T10:50:06;19.00;99.90
24800;DHT22;12897;50.812;4.430;2023-05-20T10:52:37;19.00;99.90
24800;DHT22;12897;50.812;4.430;2023-05-20T10:55:06;18.90;99.90
24800;DHT22;12897;50.812;4.430;2023-05-20T10:57:34;19.10;99.90
24800;DHT22;12897;50.812;4.430;2023-05-20T11:00:09;19.40;99.90
24800;DHT22;12897;50.812;4.430;2023-05-20T11:02:37;19.50;99.90
24800;DHT22;12897;50.812;4.430;2023-05-20T11:05:05;19.60;99.90
24800;DHT22;12897;50.812;4.430;2023-05-20T11:07:33;19.40;99.90
24800;DHT22;12897;50.812;4.430;2023-05-20T11:10:01;19.30;99.90
24800;DHT22;12897;50.812;4.430;2023-05-20T11:12:31;19.20;99.90
24800;DHT22;12897;50.812;4.430;2023-05-20T11:14:59;19.10;99.90
24800;DHT22;12897;50.812;4.430;2023-05-20T11:17:28;19.30;99.90
24800;DHT22;12897;50.812;4.430;2023-05-20T11:19:55;19.30;99.90
24800;DHT22;12897;50.812;4.430;2023-05-20T11:22:25;19.30;99.90
24800;DHT22;12897;50.812;4.430;2023-05-20T11:24:53;19.40;99.90
24800;DHT22;12897;50.812;4.430;2023-05-20T11:27:21;19.40;99.90
24800;DHT22;12897;50.812;4.430;2023-05-20T11:29:49;19.60;99.90
24800;DHT22;12897;50.812;4.430;2023-05-20T11:32:19;19.60;99.90
24800;DHT22;12897;50.812;4.430;2023-05-20T11:34:49;19.70;99.90
24800;DHT22;12897;50.812;4.430;2023-05-20T11:37:18;19.60;99.90
24800;DHT22;12897;50.812;4.430;2023-05-20T11:39:47;19.90;99.90
24800;DHT22;12897;50.812;4.430;2023-05-20T11:42:15;20.00;99.90
24800;DHT22;12897;50.812;4.430;2023-05-20T11:44:43;20.20;99.90
24800;DHT22;12897;50.812;4.430;2023-05-20T11:47:11;20.10;99.90
24800;DHT22;12897;50.812;4.430;2023-05-20T11:49:42;20.00;99.90
24800;DHT22;12897;50.812;4.430;2023-05-20T11:52:09;19.90;99.90
24800;DHT22;12897;50.812;4.430;2023-05-20T11:54:38;19.90;99.90
24800;DHT22;12897;50.812;4.430;2023-05-20T11:57:06;20.00;99.90
24800;DHT22;12897;50.812;4.430;2023-05-20T11:59:34;20.20;99.90
24800;DHT22;12897;50.812;4.430;2023-05-20T12:02:02;20.30;99.90
24800;DHT22;12897;50.812;4.430;2023-05-20T12:04:29;20.40;99.90
24800;DHT22;12897;50.812;4.430;2023-05-20T12:06:57;20.40;99.90
24800;DHT22;12897;50.812;4.430;2023-05-20T12:09:24;20.50;99.90
24800;DHT22;12897;50.812;4.430;2023-05-20T12:11:52;20.60;99.90
24800;DHT22;12897;50.812;4.430;2023-05-20T12:14:22;20.80;99.90
24800;DHT22;12897;50.812;4.430;2023-05-20T12:16:49;20.90;99.90
24800;DHT22;12897;50.812;4.430;2023-05-20T12:19:19;20.60;99.90
24800;DHT22;12897;50.812;4.430;2023-05-20T12:21:46;20.30;99.90
24800;DHT22;12897;50.812;4.430;2023-05-20T12:24:14;20.20;99.90
24800;DHT22;12897;50.812;4.430;2023-05-20T12:26:41;20.40;99.90
24800;DHT22;12897;50.812;4.430;2023-05-20T12:29:09;20.40;99.90
24800;DHT22;12897;50.812;4.430;2023-05-20T12:31:36;20.50;99.90
24800;DHT22;12897;50.812;4.430;2023-05-20T12:34:04;20.30;99.90
24800;DHT22;12897;50.812;4.430;2023-05-20T12:36:33;20.10;99.90
24800;DHT22;12897;50.812;4.430;2023-05-20T12:39:01;20.00;99.90
24800;DHT22;12897;50.812;4.430;2023-05-20T12:41:29;20.10;99.90
24800;DHT22;12897;50.812;4.430;2023-05-20T12:43:56;20.50;99.90
24800;DHT22;12897;50.812;4.430;2023-05-20T12:46:24;20.70;99.90
24800;DHT22;12897;50.812;4.430;2023-05-20T12:48:51;20.70;99.90
24800;DHT22;12897;50.812;4.430;2023-05-20T12:51:19;20.70;99.90
24800;DHT22;12897;50.812;4.430;2023-05-20T12:53:46;20.80;99.90
24800;DHT22;12897;50.812;4.430;2023-05-20T12:56:14;20.90;99.90
24800;DHT22;12897;50.812;4.430;2023-05-20T12:58:42;21.00;99.90
24800;DHT22;12897;50.812;4.430;2023-05-20T13:01:09;21.30;99.90
24800;DHT22;12897;50.812;4.430;2023-05-20T13:03:37;21.10;99.90
24800;DHT22;12897;50.812;4.430;2023-05-20T13:06:04;21.30;99.90
24800;DHT22;12897;50.812;4.430;2023-05-20T13:08:32;21.40;99.90
24800;DHT22;12897;50.812;4.430;2023-05-20T13:11:00;21.70;99.90
24800;DHT22;12897;50.812;4.430;2023-05-20T13:13:27;21.90;99.90
24800;DHT22;12897;50.812;4.430;2023-05-20T13:15:55;21.50;99.90
24800;DHT22;12897;50.812;4.430;2023-05-20T13:18:22;21.20;99.90
24800;DHT22;12897;50.812;4.430;2023-05-20T13:20:50;21.50;99.90
24800;DHT22;12897;50.812;4.430;2023-05-20T13:23:18;21.30;99.90
24800;DHT22;12897;50.812;4.430;2023-05-20T13:25:45;21.60;99.90
24800;DHT22;12897;50.812;4.430;2023-05-20T13:28:13;21.70;99.90
24800;DHT22;12897;50.812;4.430;2023-05-20T13:30:43;22.10;99.90
24800;DHT22;12897;50.812;4.430;2023-05-20T13:33:11;22.20;99.90
24800;DHT22;12897;50.812;4.430;2023-05-20T13:35:38;22.30;99.90
24800;DHT22;12897;50.812;4.430;2023-05-20T13:38:06;22.10;99.90
24800;DHT22;12897;50.812;4.430;2023-05-20T13:40:34;21.70;99.90
24800;DHT22;12897;50.812;4.430;2023-05-20T13:43:02;21.70;99.90
24800;DHT22;12897;50.812;4.430;2023-05-20T13:45:30;21.70;99.90
24800;DHT22;12897;50.812;4.430;2023-05-20T13:47:57;21.60;99.90
24800;DHT22;12897;50.812;4.430;2023-05-20T13:50:25;21.50;99.90
24800;DHT22;12897;50.812;4.430;2023-05-20T13:52:53;21.60;99.90
24800;DHT22;12897;50.812;4.430;2023-05-20T13:55:20;21.50;99.90
24800;DHT22;12897;50.812;4.430;2023-05-20T13:57:49;21.70;99.90
24800;DHT22;12897;50.812;4.430;2023-05-20T14:00:18;21.40;99.90
24800;DHT22;12897;50.812;4.430;2023-05-20T14:02:47;21.40;99.90
24800;DHT22;12897;50.812;4.430;2023-05-20T14:05:14;21.50;99.90
24800;DHT22;12897;50.812;4.430;2023-05-20T14:07:42;21.50;99.90
24800;DHT22;12897;50.812;4.430;2023-05-20T14:10:09;21.60;99.90
24800;DHT22;12897;50.812;4.430;2023-05-20T14:12:37;21.80;99.90
24800;DHT22;12897;50.812;4.430;2023-05-20T14:15:06;21.90;99.90
24800;DHT22;12897;50.812;4.430;2023-05-20T14:17:33;21.70;99.90
24800;DHT22;12897;50.812;4.430;2023-05-20T14:20:01;21.40;99.90
24800;DHT22;12897;50.812;4.430;2023-05-20T14:22:28;21.30;99.90
24800;DHT22;12897;50.812;4.430;2023-05-20T14:24:56;20.80;99.90
24800;DHT22;12897;50.812;4.430;2023-05-20T14:27:24;20.80;99.90
24800;DHT22;12897;50.812;4.430;2023-05-20T14:29:52;20.90;99.90
24800;DHT22;12897;50.812;4.430;2023-05-20T14:32:19;21.00;99.90
24800;DHT22;12897;50.812;4.430;2023-05-20T14:34:47;20.90;99.90
24800;DHT22;12897;50.812;4.430;2023-05-20T14:37:14;20.90;99.90
24800;DHT22;12897;50.812;4.430;2023-05-20T14:39:42;20.70;99.90
24800;DHT22;12897;50.812;4.430;2023-05-20T14:42:11;20.90;99.90
24800;DHT22;12897;50.812;4.430;2023-05-20T14:44:38;21.00;99.90
24800;DHT22;12897;50.812;4.430;2023-05-20T14:47:06;21.10;99.90
24800;DHT22;12897;50.812;4.430;2023-05-20T14:49:33;21.00;99.90
24800;DHT22;12897;50.812;4.430;2023-05-20T14:52:02;20.80;99.90
24800;DHT22;12897;50.812;4.430;2023-05-20T14:54:30;20.80;99.90
24800;DHT22;12897;50.812;4.430;2023-05-20T14:56:57;21.00;99.90
24800;DHT22;12897;50.812;4.430;2023-05-20T14:59:25;21.10;99.90
24800;DHT22;12897;50.812;4.430;2023-05-20T15:01:52;21.00;99.90
24800;DHT22;12897;50.812;4.430;2023-05-20T15:04:20;20.90;99.90
24800;DHT22;12897;50.812;4.430;2023-05-20T15:06:48;20.90;99.90
24800;DHT22;12897;50.812;4.430;2023-05-20T15:09:16;20.90;99.90
24800;DHT22;12897;50.812;4.430;2023-05-20T15:11:44;21.20;99.90
24800;DHT22;12897;50.812;4.430;2023-05-20T15:14:12;21.30;99.90
24800;DHT22;12897;50.812;4.430;2023-05-20T15:16:40;21.20;99.90
24800;DHT22;12897;50.812;4.430;2023-05-20T15:19:11;21.50;99.90
24800;DHT22;12897;50.812;4.430;2023-05-20T15:21:39;21.60;99.90
24800;DHT22;12897;50.812;4.430;2023-05-20T15:24:07;21.60;99.90
24800;DHT22;12897;50.812;4.430;2023-05-20T15:26:35;21.50;99.90
24800;DHT22;12897;50.812;4.430;2023-05-20T15:29:03;21.60;99.90
24800;DHT22;12897;50.812;4.430;2023-05-20T15:31:30;21.60;99.90
24800;DHT22;12897;50.812;4.430;2023-05-20T15:33:58;21.70;99.90
24800;DHT22;12897;50.812;4.430;2023-05-20T15:36:26;21.80;99.90
24800;DHT22;12897;50.812;4.430;2023-05-20T15:38:54;21.90;99.90
24800;DHT22;12897;50.812;4.430;2023-05-20T15:41:21;21.60;99.90
24800;DHT22;12897;50.812;4.430;2023-05-20T15:43:49;21.50;99.90
24800;DHT22;12897;50.812;4.430;2023-05-20T15:46:17;21.20;99.90